Ambler, Alaska
Current Conditions -  °F | °C
As of 1:56 AM on Wednesday 26 Nov 2014 (Local Time) from PAFM Reporting Station
Clear Clear  
Wind Chill: -18°   Ceiling: Unl
Heat Index: -2°   Visibility: 10mi
Dew Point: -8°   Wind: 9mph
Humidity: 78%   Direction: 30°NNE
Pressure: 30.5"   Gusts: NA
Location:  67.09°N, 157.85°W
Report Text: PAFM 261056Z AUTO 03008KT 10SM CLR M19/M22 A3050 RMK AO1
Loading
Personal Weather Stations






























Interactive Weather Map New forecast layout! Learn more

10-Day Weather Forecast

Advertisements
Track Severe Weather on mobile